createdAt,value
2023-04-16T00:00:23.251Z,7.05
2023-04-16T00:01:25.793Z,7.53
2023-04-16T00:02:28.271Z,7.30
2023-04-16T00:03:30.818Z,7.60
2023-04-16T00:04:33.607Z,7.90
2023-04-16T00:05:35.963Z,7.70
2023-04-16T00:06:38.482Z,7.40
2023-04-16T00:07:41.348Z,7.53
2023-04-16T00:08:43.831Z,8.30
2023-04-16T00:09:46.747Z,8.23
2023-04-16T00:10:49.124Z,7.85
2023-04-16T00:11:51.575Z,8.05
2023-04-16T00:12:54.166Z,7.85
2023-04-16T00:13:56.485Z,7.88
2023-04-16T00:14:59.324Z,7.40
2023-04-16T00:16:02.042Z,8.20
2023-04-16T00:17:04.371Z,7.30
2023-04-16T00:18:07.027Z,8.40
2023-04-16T00:19:09.787Z,8.80
2023-04-16T00:20:12.417Z,8.73
2023-04-16T00:21:14.661Z,8.43
2023-04-16T00:22:17.127Z,8.60
2023-04-16T00:23:21.752Z,9.35
2023-04-16T00:24:24.108Z,8.80
2023-04-16T00:25:26.630Z,8.40
2023-04-16T00:26:29.026Z,8.93
2023-04-16T00:27:31.706Z,8.85
2023-04-16T00:28:34.631Z,9.35
2023-04-16T00:29:36.806Z,9.00
2023-04-16T00:30:39.260Z,8.68
2023-04-16T00:31:41.845Z,9.48
2023-04-16T00:32:44.084Z,9.20
2023-04-16T00:33:46.802Z,9.02
2023-04-16T00:34:49.005Z,9.00
2023-04-16T00:35:51.298Z,10.48
2023-04-16T00:36:53.709Z,8.93
2023-04-16T00:37:56.039Z,10.55
2023-04-16T00:38:58.474Z,9.60
2023-04-16T00:40:01.338Z,9.07
2023-04-16T00:41:03.653Z,8.93
2023-04-16T00:42:06.051Z,9.60
2023-04-16T00:43:08.587Z,8.98
2023-04-16T00:44:11.036Z,9.93
2023-04-16T00:45:13.545Z,9.38
2023-04-16T00:46:16.930Z,10.05
2023-04-16T00:47:20.434Z,9.68
2023-04-16T00:48:23.426Z,8.70
2023-04-16T00:49:26.709Z,9.18
2023-04-16T00:50:29.787Z,9.63
2023-04-16T00:51:33.000Z,9.05
2023-04-16T00:52:35.936Z,9.82
2023-04-16T00:53:38.876Z,10.10
2023-04-16T00:54:41.480Z,10.15
2023-04-16T00:55:44.616Z,10.40
2023-04-16T00:56:47.040Z,10.77
2023-04-16T00:57:50.738Z,11.15
2023-04-16T00:58:55.061Z,10.70
2023-04-16T00:59:58.339Z,10.52
2023-04-16T01:01:01.255Z,10.07
2023-04-16T01:02:03.577Z,10.80
2023-04-16T01:03:06.351Z,10.60
2023-04-16T01:04:09.306Z,10.75
2023-04-16T01:05:11.644Z,10.95
2023-04-16T01:06:14.747Z,10.95
2023-04-16T01:07:17.223Z,11.05
2023-04-16T01:08:21.535Z,10.77
2023-04-16T01:09:24.222Z,10.43
2023-04-16T01:10:26.569Z,10.82
2023-04-16T01:11:29.054Z,11.02
2023-04-16T01:12:32.567Z,10.70
2023-04-16T01:13:39.364Z,10.45
2023-04-16T01:14:42.020Z,9.90
2023-04-16T01:15:44.485Z,11.02
2023-04-16T01:16:46.834Z,11.85
2023-04-16T01:17:49.331Z,11.13
2023-04-16T01:18:51.965Z,10.88
2023-04-16T01:19:59.537Z,11.02
2023-04-16T01:21:01.905Z,10.95
2023-04-16T01:22:05.279Z,10.65
2023-04-16T01:23:07.615Z,10.80
2023-04-16T01:24:10.093Z,9.88
2023-04-16T01:25:16.181Z,10.52
2023-04-16T01:26:18.657Z,9.52
2023-04-16T01:27:20.920Z,9.48
2023-04-16T01:28:23.662Z,10.30
2023-04-16T01:29:26.781Z,8.93
2023-04-16T01:30:31.794Z,9.65
2023-04-16T01:32:00.326Z,9.40
2023-04-16T01:33:12.833Z,8.93
2023-04-16T01:34:16.205Z,9.80
2023-04-16T01:35:20.014Z,9.40
2023-04-16T01:36:22.488Z,8.52
2023-04-16T01:37:25.552Z,9.02
2023-04-16T01:38:27.839Z,8.93
2023-04-16T01:39:30.481Z,8.18
2023-04-16T01:40:34.142Z,8.50
2023-04-16T01:41:36.492Z,8.23
2023-04-16T01:42:39.009Z,8.05
2023-04-16T01:43:42.600Z,8.23
2023-04-16T01:44:47.108Z,7.95
2023-04-16T01:45:49.365Z,8.15
2023-04-16T01:46:51.590Z,8.07
2023-04-16T01:47:53.917Z,7.63
2023-04-16T01:48:56.862Z,7.55
2023-04-16T01:50:00.556Z,7.03
2023-04-16T01:51:04.905Z,7.10
2023-04-16T01:52:08.474Z,7.32
2023-04-16T01:53:10.856Z,7.53
2023-04-16T01:54:13.287Z,7.43
2023-04-16T01:55:15.859Z,7.28
2023-04-16T01:56:18.606Z,6.72
2023-04-16T01:57:20.964Z,7.00
2023-04-16T01:58:23.239Z,7.38
2023-04-16T01:59:25.607Z,7.53
2023-04-16T02:00:28.271Z,7.60
2023-04-16T02:01:30.885Z,7.32
2023-04-16T02:02:33.270Z,7.50
2023-04-16T02:03:35.915Z,7.60
2023-04-16T02:04:45.089Z,7.30
2023-04-16T02:05:47.686Z,7.05
2023-04-16T02:06:49.960Z,7.25
2023-04-16T02:07:52.181Z,7.20
2023-04-16T02:08:54.609Z,7.60
2023-04-16T02:09:58.046Z,7.88
2023-04-16T02:11:01.185Z,7.20
2023-04-16T02:12:04.192Z,7.10
2023-04-16T02:13:06.446Z,7.30
2023-04-16T02:14:09.121Z,7.18
2023-04-16T02:15:12.103Z,6.80
2023-04-16T02:16:14.588Z,8.13
2023-04-16T02:17:24.931Z,6.45
2023-04-16T02:18:38.825Z,7.25
2023-04-16T02:19:41.818Z,7.40
2023-04-16T02:20:47.528Z,7.22
2023-04-16T02:21:52.589Z,6.85
2023-04-16T02:22:54.822Z,7.10
2023-04-16T02:23:59.253Z,7.05
2023-04-16T02:25:04.422Z,7.35
2023-04-16T02:26:07.096Z,7.13
2023-04-16T02:27:09.521Z,7.35
2023-04-16T02:28:14.658Z,7.07
2023-04-16T02:29:17.942Z,7.40
2023-04-16T02:30:27.820Z,7.05
2023-04-16T02:31:31.778Z,7.63
2023-04-16T02:32:34.156Z,7.07
2023-04-16T02:33:36.722Z,6.47
2023-04-16T02:34:40.328Z,7.28
2023-04-16T02:35:43.248Z,7.55
2023-04-16T02:36:45.518Z,7.82
2023-04-16T02:37:47.761Z,7.35
2023-04-16T02:38:50.182Z,7.28
2023-04-16T02:39:53.308Z,7.65
2023-04-16T02:40:55.994Z,7.95
2023-04-16T02:41:59.441Z,7.57
2023-04-16T02:43:02.308Z,7.40
2023-04-16T02:44:04.736Z,7.50
2023-04-16T02:45:07.616Z,7.28
2023-04-16T02:46:10.103Z,6.65
2023-04-16T02:47:12.339Z,7.60
2023-04-16T02:48:14.548Z,7.28
2023-04-16T02:49:16.752Z,7.25
2023-04-16T02:50:18.964Z,7.72
2023-04-16T02:51:21.459Z,8.40
2023-04-16T02:52:23.740Z,8.00
2023-04-16T02:53:25.985Z,8.63
2023-04-16T02:54:28.258Z,7.93
2023-04-16T02:55:30.479Z,7.85
2023-04-16T02:56:33.055Z,8.07
2023-04-16T02:57:35.484Z,8.73
2023-04-16T02:58:37.972Z,8.65
2023-04-16T02:59:40.632Z,8.85
2023-04-16T03:00:43.329Z,8.48
2023-04-16T03:01:45.624Z,8.18
2023-04-16T03:02:48.101Z,8.70
2023-04-16T03:03:50.570Z,8.50
2023-04-16T03:04:53.882Z,8.25
2023-04-16T03:05:56.075Z,9.48
2023-04-16T03:06:58.310Z,9.65
2023-04-16T03:08:00.525Z,9.70
2023-04-16T03:09:02.758Z,9.30
2023-04-16T03:10:06.589Z,9.52
2023-04-16T03:11:08.952Z,8.27
2023-04-16T03:12:11.632Z,8.60
2023-04-16T03:13:14.365Z,9.00
2023-04-16T03:14:16.580Z,8.98
2023-04-16T03:15:18.927Z,9.57
2023-04-16T03:16:21.523Z,9.02
2023-04-16T03:17:24.189Z,8.82
2023-04-16T03:18:26.436Z,9.20
2023-04-16T03:19:28.606Z,9.07
2023-04-16T03:20:30.996Z,8.35
2023-04-16T03:21:33.302Z,9.23
2023-04-16T03:22:35.607Z,8.75
2023-04-16T03:23:37.886Z,9.77
2023-04-16T03:24:40.802Z,8.93
2023-04-16T03:25:46.608Z,8.38
2023-04-16T03:26:48.903Z,9.05
2023-04-16T03:27:51.725Z,8.45
2023-04-16T03:28:54.540Z,8.48
2023-04-16T03:29:57.160Z,7.82
2023-04-16T03:30:59.992Z,8.85
2023-04-16T03:32:02.614Z,9.70
2023-04-16T03:33:05.032Z,9.05
2023-04-16T03:34:07.867Z,8.75
2023-04-16T03:35:10.816Z,8.38
2023-04-16T03:36:13.494Z,8.95
2023-04-16T03:37:16.751Z,9.00
2023-04-16T03:38:19.027Z,10.00
2023-04-16T03:39:21.765Z,9.48
2023-04-16T03:40:24.184Z,9.52
2023-04-16T03:41:27.983Z,10.07
2023-04-16T03:42:30.785Z,8.63
2023-04-16T03:43:33.872Z,9.10
2023-04-16T03:44:36.279Z,9.15
2023-04-16T03:45:47.157Z,9.10
2023-04-16T03:47:53.007Z,8.35
2023-04-16T03:48:58.096Z,9.20
2023-04-16T03:50:00.510Z,9.38
2023-04-16T03:51:03.692Z,9.82
2023-04-16T03:52:06.136Z,10.23
2023-04-16T03:53:08.501Z,10.90
2023-04-16T03:54:10.856Z,10.43
2023-04-16T03:55:14.042Z,10.07
2023-04-16T03:56:16.873Z,9.88
2023-04-16T03:57:19.141Z,11.20
2023-04-16T03:58:21.739Z,10.15
2023-04-16T03:59:23.970Z,9.93
2023-04-16T04:00:26.568Z,11.18
2023-04-16T04:01:49.796Z,10.02
2023-04-16T04:02:53.435Z,10.35
2023-04-16T04:03:56.098Z,9.93
2023-04-16T04:04:58.423Z,9.35
2023-04-16T04:06:00.878Z,10.02
2023-04-16T04:07:05.646Z,9.45
2023-04-16T04:08:08.266Z,8.98
2023-04-16T04:09:11.924Z,9.60
2023-04-16T04:10:14.303Z,9.23
2023-04-16T04:11:17.442Z,9.13
2023-04-16T04:12:21.978Z,8.85
2023-04-16T04:13:24.444Z,10.00
2023-04-16T04:14:27.538Z,9.45
2023-04-16T04:15:30.259Z,9.43
2023-04-16T04:16:32.842Z,10.52
2023-04-16T04:17:35.481Z,10.05
2023-04-16T04:18:38.260Z,10.88
2023-04-16T04:19:47.089Z,10.32
2023-04-16T04:20:53.268Z,10.32
2023-04-16T04:21:59.119Z,10.55
2023-04-16T04:23:01.638Z,10.55
2023-04-16T04:24:03.968Z,10.48
2023-04-16T04:25:10.245Z,11.23
2023-04-16T04:26:12.524Z,10.77
2023-04-16T04:27:16.071Z,11.23
2023-04-16T04:28:18.538Z,10.20
2023-04-16T04:29:21.453Z,10.40
2023-04-16T04:30:23.858Z,10.07
2023-04-16T04:31:26.085Z,10.13
2023-04-16T04:32:28.294Z,10.15
2023-04-16T04:33:32.228Z,10.43
2023-04-16T04:34:35.634Z,10.45
2023-04-16T04:35:38.247Z,10.32
2023-04-16T04:36:40.787Z,9.68
2023-04-16T04:37:43.082Z,9.45
2023-04-16T04:38:56.804Z,9.70
2023-04-16T04:39:59.119Z,9.13
2023-04-16T04:41:01.445Z,9.73
2023-04-16T04:42:08.721Z,9.90
2023-04-16T04:43:10.919Z,10.13
2023-04-16T04:44:14.229Z,9.95
2023-04-16T04:45:19.383Z,9.00
2023-04-16T04:46:21.865Z,9.82
2023-04-16T04:47:25.551Z,10.32
2023-04-16T04:48:28.848Z,9.25
2023-04-16T04:49:32.172Z,9.10
2023-04-16T04:50:34.486Z,9.57
2023-04-16T04:51:38.316Z,9.65
2023-04-16T04:52:40.814Z,9.98
2023-04-16T04:53:43.747Z,9.48
2023-04-16T04:54:46.421Z,10.07
2023-04-16T04:55:52.336Z,9.10
2023-04-16T04:56:56.628Z,8.48
2023-04-16T04:57:58.846Z,9.38
2023-04-16T04:59:01.853Z,9.20
2023-04-16T05:00:04.467Z,9.23
2023-04-16T05:01:14.846Z,8.55
2023-04-16T05:02:17.201Z,9.30
2023-04-16T05:03:24.077Z,9.68
2023-04-16T05:04:26.412Z,10.43
2023-04-16T05:05:28.820Z,8.85
2023-04-16T05:06:31.463Z,9.98
2023-04-16T05:07:33.790Z,9.98
2023-04-16T05:08:36.358Z,10.95
2023-04-16T05:09:38.782Z,10.05
2023-04-16T05:10:41.289Z,9.80
2023-04-16T05:11:43.537Z,9.43
2023-04-16T05:12:48.906Z,10.10
2023-04-16T05:13:54.369Z,9.95
2023-04-16T05:14:56.802Z,9.70
2023-04-16T05:15:59.712Z,9.43
2023-04-16T05:17:02.098Z,10.07
2023-04-16T05:18:04.632Z,9.85
2023-04-16T05:19:06.997Z,10.20
2023-04-16T05:20:09.841Z,10.35
2023-04-16T05:21:12.160Z,9.68
2023-04-16T05:22:14.472Z,10.77
2023-04-16T05:23:16.748Z,11.30
2023-04-16T05:24:19.940Z,10.48
2023-04-16T05:25:22.782Z,11.07
2023-04-16T05:26:30.508Z,11.35
2023-04-16T05:27:36.448Z,11.43
2023-04-16T05:28:38.678Z,10.88
2023-04-16T05:29:41.048Z,11.15
2023-04-16T05:30:43.561Z,11.43
2023-04-16T05:31:45.997Z,11.85
2023-04-16T05:32:48.435Z,12.38
2023-04-16T05:33:50.665Z,12.48
2023-04-16T05:34:53.133Z,12.00
2023-04-16T05:35:55.398Z,12.20
2023-04-16T05:36:57.588Z,12.90
2023-04-16T05:37:59.782Z,12.68
2023-04-16T05:39:02.188Z,12.82
2023-04-16T05:40:04.647Z,14.15
2023-04-16T05:41:09.426Z,15.00
2023-04-16T05:42:11.666Z,14.65
2023-04-16T05:43:16.162Z,15.18
2023-04-16T05:44:18.744Z,15.32
2023-04-16T05:45:21.262Z,14.30
2023-04-16T05:46:23.598Z,15.32
2023-04-16T05:47:25.945Z,14.70
2023-04-16T05:48:28.156Z,15.23
2023-04-16T05:49:30.366Z,14.98
2023-04-16T05:50:32.592Z,15.15
2023-04-16T05:51:34.841Z,15.55
2023-04-16T05:52:37.253Z,15.52
2023-04-16T05:53:41.836Z,15.40
2023-04-16T05:54:44.099Z,15.38
2023-04-16T05:55:47.104Z,15.80
2023-04-16T05:56:49.313Z,15.32
2023-04-16T05:57:51.521Z,15.82
2023-04-16T05:58:53.752Z,15.23
2023-04-16T05:59:55.938Z,15.85
2023-04-16T06:00:58.378Z,15.45
2023-04-16T06:02:00.765Z,14.18
2023-04-16T06:03:03.854Z,14.73
2023-04-16T06:04:06.570Z,13.95
2023-04-16T06:05:09.026Z,13.80
2023-04-16T06:06:11.809Z,14.80
2023-04-16T06:07:14.009Z,13.65
2023-04-16T06:08:16.269Z,14.02
2023-04-16T06:09:19.068Z,13.35
2023-04-16T06:10:21.415Z,14.25
2023-04-16T06:11:23.918Z,14.80
2023-04-16T06:12:29.459Z,15.25
2023-04-16T06:13:31.771Z,15.52
2023-04-16T06:14:34.273Z,15.02
2023-04-16T06:15:36.668Z,15.07
2023-04-16T06:16:38.853Z,14.20
2023-04-16T06:17:42.139Z,14.65
2023-04-16T06:18:44.733Z,14.57
2023-04-16T06:19:46.941Z,14.63
2023-04-16T06:20:49.407Z,14.50
2023-04-16T06:21:51.691Z,14.82
2023-04-16T06:22:53.979Z,13.80
2023-04-16T06:23:56.467Z,15.63
2023-04-16T06:24:58.761Z,15.02
2023-04-16T06:26:01.329Z,14.40
2023-04-16T06:27:03.598Z,14.05
2023-04-16T06:28:06.098Z,14.73
2023-04-16T06:29:08.596Z,13.98
2023-04-16T06:30:16.771Z,13.23
2023-04-16T06:31:19.186Z,13.65
2023-04-16T06:32:21.672Z,13.63
2023-04-16T06:33:24.071Z,14.02
2023-04-16T06:34:28.034Z,14.35
2023-04-16T06:35:30.455Z,13.32
2023-04-16T06:36:32.938Z,13.55
2023-04-16T06:37:35.551Z,13.63
2023-04-16T06:38:37.879Z,13.60
2023-04-16T06:39:40.715Z,13.15
2023-04-16T06:40:43.163Z,13.90
2023-04-16T06:41:45.721Z,13.73
2023-04-16T06:42:47.945Z,12.48
2023-04-16T06:43:50.348Z,13.60
2023-04-16T06:44:52.518Z,13.35
2023-04-16T06:45:54.961Z,11.85
2023-04-16T06:46:57.359Z,13.32
2023-04-16T06:47:59.766Z,13.48
2023-04-16T06:49:02.264Z,12.80
2023-04-16T06:50:04.716Z,12.98
2023-04-16T06:51:07.193Z,13.50
2023-04-16T06:52:09.876Z,11.75
2023-04-16T06:53:12.191Z,12.18
2023-04-16T06:54:14.590Z,13.07
2023-04-16T06:55:17.016Z,11.77
2023-04-16T06:56:19.452Z,13.15
2023-04-16T06:57:21.861Z,12.27
2023-04-16T06:58:24.133Z,13.02
2023-04-16T06:59:29.680Z,12.18
2023-04-16T07:00:31.877Z,13.20
2023-04-16T07:01:34.508Z,12.70
2023-04-16T07:02:36.954Z,12.55
2023-04-16T07:03:39.783Z,11.93
2023-04-16T07:04:42.107Z,12.32
2023-04-16T07:05:44.344Z,12.00
2023-04-16T07:06:46.731Z,12.13
2023-04-16T07:07:48.955Z,12.10
2023-04-16T07:08:51.202Z,12.93
2023-04-16T07:09:53.425Z,11.63
2023-04-16T07:10:55.876Z,11.50
2023-04-16T07:11:58.429Z,11.65
2023-04-16T07:13:01.690Z,10.65
2023-04-16T07:14:04.094Z,11.00
2023-04-16T07:15:07.400Z,10.40
2023-04-16T07:16:09.802Z,10.38
2023-04-16T07:17:12.052Z,11.52
2023-04-16T07:18:14.337Z,11.25
2023-04-16T07:19:16.569Z,11.90
2023-04-16T07:20:18.797Z,12.40
2023-04-16T07:21:22.173Z,11.82
2023-04-16T07:22:24.584Z,12.85
2023-04-16T07:23:26.817Z,11.55
2023-04-16T07:24:29.162Z,10.98
2023-04-16T07:25:31.487Z,10.80
2023-04-16T07:26:33.682Z,11.40
2023-04-16T07:27:36.089Z,11.75
2023-04-16T07:28:38.378Z,11.82
2023-04-16T07:29:41.165Z,10.90
2023-04-16T07:30:46.180Z,10.48
2023-04-16T07:31:49.644Z,11.48
2023-04-16T07:32:52.211Z,10.70
2023-04-16T07:33:54.456Z,10.00
2023-04-16T07:34:56.765Z,10.23
2023-04-16T07:35:59.099Z,9.80
2023-04-16T07:37:01.771Z,10.50
2023-04-16T07:38:03.979Z,10.70
2023-04-16T07:39:10.961Z,10.05
2023-04-16T07:40:13.725Z,10.13
2023-04-16T07:41:16.016Z,10.70
2023-04-16T07:42:18.602Z,10.38
2023-04-16T07:43:20.838Z,10.45
2023-04-16T07:44:23.081Z,10.27
2023-04-16T07:45:25.304Z,9.35
2023-04-16T07:46:39.405Z,8.55
2023-04-16T07:47:48.415Z,8.43
2023-04-16T07:48:50.721Z,8.07
2023-04-16T07:49:53.816Z,8.45
2023-04-16T07:50:56.347Z,8.60
2023-04-16T07:51:58.618Z,8.82
2023-04-16T07:53:01.577Z,9.25
2023-04-16T07:54:03.842Z,8.82
2023-04-16T07:55:06.405Z,8.05
2023-04-16T07:56:08.985Z,8.40
2023-04-16T07:57:12.276Z,7.47
2023-04-16T07:58:14.574Z,7.80
2023-04-16T07:59:22.824Z,8.20
2023-04-16T08:00:26.482Z,6.68
2023-04-16T08:01:31.506Z,6.72
2023-04-16T08:02:33.977Z,7.03
2023-04-16T08:03:36.745Z,7.32
2023-04-16T08:04:39.502Z,6.28
2023-04-16T08:05:41.958Z,7.00
2023-04-16T08:06:44.339Z,6.95
2023-04-16T08:07:46.787Z,6.32
2023-04-16T08:08:49.550Z,7.05
2023-04-16T08:09:52.979Z,7.38
2023-04-16T08:10:56.026Z,6.97
2023-04-16T08:11:59.974Z,7.60
2023-04-16T08:13:02.162Z,6.40
2023-04-16T08:14:04.900Z,5.90
2023-04-16T08:15:07.770Z,6.28
2023-04-16T08:16:10.173Z,6.38
2023-04-16T08:17:13.225Z,6.90
2023-04-16T08:18:15.762Z,6.53
2023-04-16T08:19:18.159Z,6.88
2023-04-16T08:20:20.613Z,6.78
2023-04-16T08:21:22.890Z,7.00
2023-04-16T08:22:26.527Z,6.80
2023-04-16T08:23:29.741Z,6.95
2023-04-16T08:24:32.405Z,6.80
2023-04-16T08:25:35.457Z,6.40
2023-04-16T08:26:37.797Z,6.10
2023-04-16T08:27:40.229Z,6.32
2023-04-16T08:28:42.743Z,6.57
2023-04-16T08:29:44.952Z,6.80
2023-04-16T08:30:47.231Z,6.30
2023-04-16T08:31:49.786Z,6.82
2023-04-16T08:32:52.303Z,6.20
2023-04-16T08:33:54.944Z,6.05
2023-04-16T08:34:58.102Z,6.00
2023-04-16T08:36:00.549Z,6.15
2023-04-16T08:37:03.049Z,5.95
2023-04-16T08:38:05.511Z,5.97
2023-04-16T08:39:08.132Z,5.32
2023-04-16T08:40:11.182Z,6.38
2023-04-16T08:41:14.154Z,5.80
2023-04-16T08:42:24.022Z,5.80
2023-04-16T08:43:27.428Z,6.22
2023-04-16T08:44:34.961Z,6.07
2023-04-16T08:45:38.419Z,6.13
2023-04-16T08:46:41.617Z,6.40
2023-04-16T08:47:49.579Z,6.35
2023-04-16T08:48:56.040Z,7.05
2023-04-16T08:49:59.234Z,6.45
2023-04-16T08:51:02.318Z,6.88
2023-04-16T08:52:06.722Z,7.65
2023-04-16T08:53:15.973Z,8.48
2023-04-16T08:54:43.785Z,7.85
2023-04-16T08:55:50.888Z,7.35
2023-04-16T08:56:54.049Z,7.90
2023-04-16T08:58:01.358Z,7.82
2023-04-16T08:59:07.542Z,7.25
2023-04-16T09:00:12.137Z,7.40
2023-04-16T09:01:15.398Z,7.80
2023-04-16T09:02:17.972Z,8.10
2023-04-16T09:03:21.612Z,8.18
2023-04-16T09:04:28.758Z,8.00
2023-04-16T09:05:31.888Z,7.93
2023-04-16T09:06:35.164Z,7.80
2023-04-16T09:07:38.181Z,8.80
2023-04-16T09:08:41.083Z,8.13
2023-04-16T09:09:48.442Z,9.18
2023-04-16T09:10:53.597Z,8.85
2023-04-16T09:11:56.612Z,8.60
2023-04-16T09:12:59.444Z,8.98
2023-04-16T09:14:02.060Z,9.43
2023-04-16T09:15:05.917Z,9.15
2023-04-16T09:16:09.371Z,8.68
2023-04-16T09:17:14.147Z,9.70
2023-04-16T09:18:16.577Z,9.85
2023-04-16T09:19:18.988Z,10.05
2023-04-16T09:20:21.225Z,9.05
2023-04-16T09:21:24.154Z,9.52
2023-04-16T09:22:26.480Z,10.52
2023-04-16T09:23:29.690Z,9.48
2023-04-16T09:24:32.698Z,9.75
2023-04-16T09:25:35.301Z,9.73
2023-04-16T09:26:38.638Z,10.10
2023-04-16T09:27:41.069Z,9.45
2023-04-16T09:28:47.995Z,9.32
2023-04-16T09:29:50.593Z,9.60
2023-04-16T09:31:17.179Z,10.10
2023-04-16T09:32:26.332Z,9.80
2023-04-16T09:33:28.549Z,12.90
2023-04-16T09:34:35.386Z,13.35
2023-04-16T09:35:51.639Z,13.27
2023-04-16T09:36:53.929Z,9.70
2023-04-16T09:37:57.851Z,9.30
2023-04-16T09:39:00.361Z,8.98
2023-04-16T09:40:04.816Z,9.20
2023-04-16T09:41:08.317Z,8.82
2023-04-16T09:42:14.133Z,9.52
2023-04-16T09:43:18.778Z,8.98
2023-04-16T09:44:21.783Z,8.30
2023-04-16T09:45:24.703Z,8.75
2023-04-16T09:46:31.777Z,8.75
2023-04-16T09:47:45.249Z,9.23
2023-04-16T09:48:47.961Z,9.75
2023-04-16T09:49:50.397Z,8.95
2023-04-16T09:50:52.712Z,9.82
2023-04-16T09:51:56.163Z,8.88
2023-04-16T09:53:03.588Z,8.00
2023-04-16T09:54:06.695Z,7.90
2023-04-16T09:55:08.864Z,8.20
2023-04-16T09:56:12.225Z,8.75
2023-04-16T09:57:18.200Z,8.18
2023-04-16T09:58:20.781Z,7.97
2023-04-16T09:59:24.196Z,8.55
2023-04-16T10:00:28.717Z,8.50
2023-04-16T10:01:31.410Z,7.88
2023-04-16T10:02:39.160Z,7.70
2023-04-16T10:03:42.422Z,7.53
2023-04-16T10:04:52.056Z,8.13
2023-04-16T10:05:54.464Z,8.40
2023-04-16T10:07:05.042Z,8.77
2023-04-16T10:08:17.293Z,8.68
2023-04-16T10:09:19.654Z,8.60
2023-04-16T10:10:22.342Z,7.20
2023-04-16T10:11:24.909Z,7.80
2023-04-16T10:12:28.784Z,7.55
2023-04-16T10:13:32.056Z,7.93
2023-04-16T10:14:34.835Z,8.10
2023-04-16T10:15:37.288Z,7.95
2023-04-16T10:16:41.207Z,8.27
2023-04-16T10:17:43.659Z,7.97
2023-04-16T10:18:47.328Z,8.68
2023-04-16T10:19:51.198Z,8.38
2023-04-16T10:20:53.690Z,8.20
2023-04-16T10:21:56.160Z,8.45
2023-04-16T10:22:59.141Z,8.20
2023-04-16T10:24:01.718Z,8.70
2023-04-16T10:25:04.281Z,8.00
2023-04-16T10:26:06.803Z,7.45
2023-04-16T10:27:09.005Z,7.63
2023-04-16T10:28:13.151Z,7.85
2023-04-16T10:29:15.698Z,7.55
2023-04-16T10:30:19.466Z,8.20
2023-04-16T10:31:22.957Z,8.13
2023-04-16T10:32:28.634Z,8.13
2023-04-16T10:33:36.437Z,7.85
2023-04-16T10:34:39.145Z,8.32
2023-04-16T10:35:41.439Z,7.55
2023-04-16T10:36:47.807Z,7.38
2023-04-16T10:37:51.529Z,8.10
2023-04-16T10:38:58.469Z,7.32
2023-04-16T10:40:00.686Z,7.55
2023-04-16T10:41:04.844Z,7.35
2023-04-16T10:42:13.602Z,6.63
2023-04-16T10:43:19.764Z,6.25
2023-04-16T10:44:24.929Z,6.57
2023-04-16T10:45:40.003Z,7.10
2023-04-16T10:46:43.956Z,7.20
2023-04-16T10:47:46.285Z,7.03
2023-04-16T10:48:50.789Z,7.68
2023-04-16T10:49:54.776Z,8.10
2023-04-16T10:50:58.198Z,7.70
2023-04-16T10:52:07.537Z,7.35
2023-04-16T10:53:28.203Z,6.80
2023-04-16T10:54:31.414Z,6.50
2023-04-16T10:55:38.112Z,7.32
2023-04-16T10:56:40.750Z,6.40
2023-04-16T10:57:42.945Z,6.70
2023-04-16T10:58:45.340Z,7.15
2023-04-16T10:59:48.982Z,6.65
2023-04-16T11:00:52.005Z,6.45
2023-04-16T11:01:56.357Z,7.30
2023-04-16T11:02:58.895Z,7.25
2023-04-16T11:04:25.082Z,7.38
2023-04-16T11:05:46.900Z,5.38
2023-04-16T11:07:14.638Z,7.25
2023-04-16T11:08:16.836Z,6.45
2023-04-16T11:09:49.816Z,5.80
2023-04-16T11:10:52.402Z,5.60
2023-04-16T11:11:55.074Z,5.32
2023-04-16T11:12:57.604Z,4.00
2023-04-16T11:14:00.325Z,4.82
2023-04-16T11:15:06.400Z,4.35
2023-04-16T11:16:08.765Z,3.92
2023-04-16T11:17:11.122Z,4.32
2023-04-16T11:18:19.701Z,3.45
2023-04-16T11:19:22.094Z,4.00
2023-04-16T11:20:28.383Z,4.38
2023-04-16T11:21:32.626Z,5.20
2023-04-16T11:22:38.281Z,4.53
2023-04-16T11:23:52.036Z,5.57
2023-04-16T11:24:56.234Z,4.40
2023-04-16T11:25:59.258Z,4.07
2023-04-16T11:27:01.842Z,4.30
2023-04-16T11:28:04.099Z,4.63
2023-04-16T11:29:14.400Z,3.80
2023-04-16T11:30:17.563Z,3.75
2023-04-16T11:31:19.925Z,4.15
2023-04-16T11:32:22.786Z,3.90
2023-04-16T11:33:26.188Z,3.20
2023-04-16T11:34:28.547Z,4.40
2023-04-16T11:35:31.177Z,3.60
2023-04-16T11:36:46.343Z,2.75
2023-04-16T11:37:48.903Z,3.13
2023-04-16T11:38:51.673Z,3.33
2023-04-16T11:39:57.148Z,3.45
2023-04-16T11:40:59.324Z,4.07
2023-04-16T11:42:01.593Z,4.55
2023-04-16T11:43:15.753Z,5.95
2023-04-16T11:44:22.094Z,2.60
2023-04-16T11:45:24.339Z,2.50
2023-04-16T11:46:39.522Z,3.20
2023-04-16T11:47:55.442Z,3.08
2023-04-16T11:48:57.921Z,3.70
2023-04-16T11:50:21.469Z,3.58
2023-04-16T11:51:24.187Z,3.17
2023-04-16T11:52:27.733Z,4.15
2023-04-16T11:53:29.924Z,3.33
2023-04-16T11:54:35.164Z,3.30
2023-04-16T11:55:45.549Z,5.38
2023-04-16T11:56:49.772Z,3.92
2023-04-16T11:57:53.270Z,3.80
2023-04-16T11:59:12.225Z,3.58
2023-04-16T12:00:15.919Z,3.58
2023-04-16T12:01:21.421Z,3.33
2023-04-16T12:02:45.310Z,3.00
2023-04-16T12:03:49.785Z,3.10
2023-04-16T12:04:52.410Z,3.28
2023-04-16T12:06:07.808Z,3.03
2023-04-16T12:07:14.890Z,2.92
2023-04-16T12:08:30.944Z,3.72
2023-04-16T12:09:36.483Z,2.80
2023-04-16T12:10:55.624Z,2.70
2023-04-16T12:11:57.942Z,2.67
2023-04-16T12:13:30.304Z,2.28
2023-04-16T12:14:33.071Z,2.28
2023-04-16T12:15:56.003Z,2.28
2023-04-16T12:17:18.561Z,2.80
2023-04-16T12:18:23.081Z,2.45
2023-04-16T12:19:28.144Z,2.28
2023-04-16T12:20:40.382Z,2.78
2023-04-16T12:21:45.065Z,2.47
2023-04-16T12:22:49.586Z,2.50
2023-04-16T12:23:53.775Z,2.38
2023-04-16T12:24:59.860Z,2.58
2023-04-16T12:26:12.532Z,3.03
2023-04-16T12:27:16.437Z,2.92
2023-04-16T12:28:33.552Z,2.70
2023-04-16T12:29:37.109Z,2.50
2023-04-16T12:30:51.352Z,2.08
2023-04-16T12:31:54.246Z,2.38
2023-04-16T12:33:17.062Z,2.45
2023-04-16T12:34:21.866Z,2.30
2023-04-16T12:35:34.473Z,2.58
2023-04-16T12:36:37.547Z,2.70
2023-04-16T12:37:40.830Z,2.42
2023-04-16T12:38:43.025Z,2.72
2023-04-16T12:39:47.573Z,2.80
2023-04-16T12:40:50.274Z,2.70
2023-04-16T12:41:52.890Z,2.63
2023-04-16T12:42:55.490Z,2.40
2023-04-16T12:44:24.073Z,2.28
2023-04-16T12:45:29.206Z,2.55
2023-04-16T12:46:31.669Z,2.30
2023-04-16T12:47:34.138Z,2.15
2023-04-16T12:48:36.665Z,2.65
2023-04-16T12:49:41.123Z,2.60
2023-04-16T12:50:44.338Z,4.53
2023-04-16T12:51:46.930Z,4.80
2023-04-16T12:52:49.130Z,3.45
2023-04-16T12:53:51.292Z,3.33
2023-04-16T12:54:53.874Z,3.50
2023-04-16T12:55:56.107Z,2.70
2023-04-16T12:56:58.479Z,2.65
2023-04-16T12:58:01.022Z,3.00
2023-04-16T12:59:03.636Z,2.78
2023-04-16T13:00:06.851Z,2.00
2023-04-16T13:01:09.175Z,1.88
2023-04-16T13:02:11.458Z,1.83
2023-04-16T13:03:14.058Z,1.70
2023-04-16T13:04:19.109Z,2.22
2023-04-16T13:05:21.469Z,1.95
2023-04-16T13:06:23.861Z,1.90
2023-04-16T13:07:26.898Z,1.77
2023-04-16T13:08:29.797Z,1.90
2023-04-16T13:09:31.974Z,1.90
2023-04-16T13:10:35.449Z,1.70
2023-04-16T13:11:37.703Z,1.80
2023-04-16T13:12:39.912Z,2.13
2023-04-16T13:13:44.619Z,1.88
2023-04-16T13:14:46.989Z,2.10
2023-04-16T13:15:49.359Z,2.10
2023-04-16T13:16:51.805Z,2.03
2023-04-16T13:17:54.100Z,1.75
2023-04-16T13:18:56.332Z,1.70
2023-04-16T13:19:58.525Z,1.80
2023-04-16T13:21:00.812Z,2.20
2023-04-16T13:22:03.391Z,1.77
2023-04-16T13:23:05.751Z,1.63
2023-04-16T13:24:08.192Z,1.90
2023-04-16T13:25:10.427Z,1.75
2023-04-16T13:27:23.394Z,1.83
2023-04-16T13:28:25.824Z,2.45
2023-04-16T13:29:28.330Z,2.13
2023-04-16T13:30:31.677Z,1.90
2023-04-16T13:31:33.954Z,2.17
2023-04-16T13:32:36.476Z,2.55
2023-04-16T13:33:38.975Z,2.10
2023-04-16T13:34:41.279Z,2.80
2023-04-16T13:35:46.347Z,2.05
2023-04-16T13:36:48.829Z,1.88
2023-04-16T13:37:51.208Z,2.20
2023-04-16T13:38:53.405Z,2.42
2023-04-16T13:39:57.681Z,2.40
2023-04-16T13:40:59.865Z,2.38
2023-04-16T13:42:02.676Z,2.28
2023-04-16T13:43:07.250Z,2.53
2023-04-16T13:44:09.927Z,2.60
2023-04-16T13:45:12.383Z,2.22
2023-04-16T13:46:14.620Z,1.95
2023-04-16T13:47:17.061Z,1.65
2023-04-16T13:48:19.305Z,1.65
2023-04-16T13:49:22.682Z,1.75
2023-04-16T13:50:25.066Z,1.52
2023-04-16T13:51:27.880Z,1.65
2023-04-16T13:52:30.074Z,1.70
2023-04-16T13:53:32.359Z,1.63
2023-04-16T13:54:34.550Z,1.75
2023-04-16T13:55:36.772Z,1.50
2023-04-16T13:56:39.524Z,1.90
2023-04-16T13:57:41.710Z,1.90
2023-04-16T13:58:43.910Z,1.63
2023-04-16T13:59:46.199Z,1.92
2023-04-16T14:00:48.440Z,1.73
2023-04-16T14:01:51.125Z,1.95
2023-04-16T14:02:53.933Z,1.95
2023-04-16T14:03:56.504Z,1.98
2023-04-16T14:04:58.864Z,1.33
2023-04-16T14:06:01.320Z,1.70